sensor_id;sensor_type;location;lat;lon;timestamp;P1;durP1;ratioP1;P2;durP2;ratioP2
4808;SDS011;2418;49.930;8.606;2023-03-03T00:02:05;10.57;;;9.48;;
4808;SDS011;2418;49.930;8.606;2023-03-03T00:04:31;11.77;;;9.82;;
4808;SDS011;2418;49.930;8.606;2023-03-03T00:06:57;13.63;;;9.68;;
4808;SDS011;2418;49.930;8.606;2023-03-03T00:09:23;15.32;;;11.13;;
4808;SDS011;2418;49.930;8.606;2023-03-03T00:11:49;15.98;;;11.38;;
4808;SDS011;2418;49.930;8.606;2023-03-03T00:14:20;14.38;;;9.77;;
4808;SDS011;2418;49.930;8.606;2023-03-03T00:16:47;16.10;;;10.20;;
4808;SDS011;2418;49.930;8.606;2023-03-03T00:19:14;16.80;;;10.60;;
4808;SDS011;2418;49.930;8.606;2023-03-03T00:21:43;17.60;;;11.20;;
4808;SDS011;2418;49.930;8.606;2023-03-03T00:26:39;18.33;;;11.02;;
4808;SDS011;2418;49.930;8.606;2023-03-03T00:31:51;16.35;;;11.13;;
4808;SDS011;2418;49.930;8.606;2023-03-03T00:36:44;17.45;;;12.20;;
4808;SDS011;2418;49.930;8.606;2023-03-03T00:41:42;24.50;;;12.02;;
4808;SDS011;2418;49.930;8.606;2023-03-03T00:44:23;17.85;;;12.20;;
4808;SDS011;2418;49.930;8.606;2023-03-03T00:46:54;21.08;;;12.82;;
4808;SDS011;2418;49.930;8.606;2023-03-03T00:49:25;20.77;;;13.68;;
4808;SDS011;2418;49.930;8.606;2023-03-03T00:51:52;20.92;;;12.75;;
4808;SDS011;2418;49.930;8.606;2023-03-03T00:54:18;18.27;;;13.48;;
4808;SDS011;2418;49.930;8.606;2023-03-03T00:56:44;19.50;;;13.25;;
4808;SDS011;2418;49.930;8.606;2023-03-03T00:59:10;19.25;;;13.80;;
4808;SDS011;2418;49.930;8.606;2023-03-03T01:01:36;18.83;;;13.48;;
4808;SDS011;2418;49.930;8.606;2023-03-03T01:04:02;20.83;;;13.77;;
4808;SDS011;2418;49.930;8.606;2023-03-03T01:06:28;19.60;;;13.93;;
4808;SDS011;2418;49.930;8.606;2023-03-03T01:08:54;19.25;;;13.75;;
4808;SDS011;2418;49.930;8.606;2023-03-03T01:11:22;21.40;;;14.60;;
4808;SDS011;2418;49.930;8.606;2023-03-03T01:13:49;20.95;;;14.27;;
4808;SDS011;2418;49.930;8.606;2023-03-03T01:16:16;21.10;;;14.15;;
4808;SDS011;2418;49.930;8.606;2023-03-03T01:18:42;20.05;;;14.48;;
4808;SDS011;2418;49.930;8.606;2023-03-03T01:21:08;20.73;;;14.13;;
4808;SDS011;2418;49.930;8.606;2023-03-03T01:23:34;22.13;;;14.30;;
4808;SDS011;2418;49.930;8.606;2023-03-03T01:26:00;20.08;;;13.90;;
4808;SDS011;2418;49.930;8.606;2023-03-03T01:28:26;21.10;;;14.65;;
4808;SDS011;2418;49.930;8.606;2023-03-03T01:30:52;26.87;;;15.07;;
4808;SDS011;2418;49.930;8.606;2023-03-03T01:33:19;23.40;;;14.82;;
4808;SDS011;2418;49.930;8.606;2023-03-03T01:35:45;20.23;;;14.20;;
4808;SDS011;2418;49.930;8.606;2023-03-03T01:38:12;21.80;;;15.45;;
4808;SDS011;2418;49.930;8.606;2023-03-03T01:40:38;20.48;;;14.95;;
4808;SDS011;2418;49.930;8.606;2023-03-03T01:43:04;23.93;;;15.20;;
4808;SDS011;2418;49.930;8.606;2023-03-03T01:45:31;21.85;;;15.18;;
4808;SDS011;2418;49.930;8.606;2023-03-03T01:48:17;24.98;;;15.52;;
4808;SDS011;2418;49.930;8.606;2023-03-03T01:50:49;25.95;;;16.10;;
4808;SDS011;2418;49.930;8.606;2023-03-03T01:53:18;21.85;;;15.68;;
4808;SDS011;2418;49.930;8.606;2023-03-03T01:55:44;29.77;;;16.20;;
4808;SDS011;2418;49.930;8.606;2023-03-03T01:58:22;25.17;;;17.20;;
4808;SDS011;2418;49.930;8.606;2023-03-03T02:00:51;28.77;;;16.55;;
4808;SDS011;2418;49.930;8.606;2023-03-03T02:03:19;24.33;;;16.27;;
4808;SDS011;2418;49.930;8.606;2023-03-03T02:05:46;27.27;;;17.13;;
4808;SDS011;2418;49.930;8.606;2023-03-03T02:08:12;24.80;;;16.42;;
4808;SDS011;2418;49.930;8.606;2023-03-03T02:10:40;29.97;;;17.30;;
4808;SDS011;2418;49.930;8.606;2023-03-03T02:13:08;25.58;;;16.67;;
4808;SDS011;2418;49.930;8.606;2023-03-03T02:15:34;26.00;;;17.10;;
4808;SDS011;2418;49.930;8.606;2023-03-03T02:18:04;29.23;;;17.23;;
4808;SDS011;2418;49.930;8.606;2023-03-03T02:23:23;29.27;;;19.23;;
4808;SDS011;2418;49.930;8.606;2023-03-03T02:28:17;28.48;;;18.00;;
4808;SDS011;2418;49.930;8.606;2023-03-03T02:30:43;31.35;;;18.75;;
4808;SDS011;2418;49.930;8.606;2023-03-03T02:33:09;30.83;;;18.50;;
4808;SDS011;2418;49.930;8.606;2023-03-03T02:35:36;33.85;;;19.63;;
4808;SDS011;2418;49.930;8.606;2023-03-03T02:40:39;33.42;;;20.08;;
4808;SDS011;2418;49.930;8.606;2023-03-03T02:43:07;35.30;;;19.58;;
4808;SDS011;2418;49.930;8.606;2023-03-03T02:45:39;30.17;;;20.00;;
4808;SDS011;2418;49.930;8.606;2023-03-03T02:48:06;33.20;;;19.63;;
4808;SDS011;2418;49.930;8.606;2023-03-03T02:50:32;33.10;;;19.73;;
4808;SDS011;2418;49.930;8.606;2023-03-03T02:52:57;28.20;;;19.20;;
4808;SDS011;2418;49.930;8.606;2023-03-03T02:55:23;35.17;;;20.50;;
4808;SDS011;2418;49.930;8.606;2023-03-03T02:57:49;35.92;;;21.70;;
4808;SDS011;2418;49.930;8.606;2023-03-03T03:00:15;34.80;;;21.05;;
4808;SDS011;2418;49.930;8.606;2023-03-03T03:02:42;32.70;;;20.98;;
4808;SDS011;2418;49.930;8.606;2023-03-03T03:05:08;34.80;;;20.52;;
4808;SDS011;2418;49.930;8.606;2023-03-03T03:07:34;37.92;;;21.85;;
4808;SDS011;2418;49.930;8.606;2023-03-03T03:10:00;37.13;;;22.85;;
4808;SDS011;2418;49.930;8.606;2023-03-03T03:12:26;39.87;;;23.23;;
4808;SDS011;2418;49.930;8.606;2023-03-03T03:14:52;37.00;;;22.23;;
4808;SDS011;2418;49.930;8.606;2023-03-03T03:17:18;38.15;;;22.98;;
4808;SDS011;2418;49.930;8.606;2023-03-03T03:19:44;44.15;;;24.50;;
4808;SDS011;2418;49.930;8.606;2023-03-03T03:22:10;37.75;;;23.58;;
4808;SDS011;2418;49.930;8.606;2023-03-03T03:24:36;40.60;;;22.98;;
4808;SDS011;2418;49.930;8.606;2023-03-03T03:27:02;41.72;;;24.00;;
4808;SDS011;2418;49.930;8.606;2023-03-03T03:29:27;39.65;;;23.00;;
4808;SDS011;2418;49.930;8.606;2023-03-03T03:31:53;48.00;;;24.58;;
4808;SDS011;2418;49.930;8.606;2023-03-03T03:34:19;39.90;;;24.08;;
4808;SDS011;2418;49.930;8.606;2023-03-03T03:36:45;39.05;;;24.23;;
4808;SDS011;2418;49.930;8.606;2023-03-03T03:39:11;45.13;;;25.33;;
4808;SDS011;2418;49.930;8.606;2023-03-03T03:41:37;45.13;;;26.85;;
4808;SDS011;2418;49.930;8.606;2023-03-03T03:44:03;52.20;;;27.17;;
4808;SDS011;2418;49.930;8.606;2023-03-03T03:46:29;44.28;;;25.70;;
4808;SDS011;2418;49.930;8.606;2023-03-03T03:48:55;45.63;;;27.03;;
4808;SDS011;2418;49.930;8.606;2023-03-03T03:51:22;47.30;;;26.65;;
4808;SDS011;2418;49.930;8.606;2023-03-03T03:53:48;45.88;;;27.27;;
4808;SDS011;2418;49.930;8.606;2023-03-03T03:56:14;48.08;;;27.88;;
4808;SDS011;2418;49.930;8.606;2023-03-03T03:58:40;49.77;;;28.23;;
4808;SDS011;2418;49.930;8.606;2023-03-03T04:01:06;51.53;;;28.13;;
4808;SDS011;2418;49.930;8.606;2023-03-03T04:03:32;53.00;;;28.65;;
4808;SDS011;2418;49.930;8.606;2023-03-03T04:05:58;53.78;;;28.48;;
4808;SDS011;2418;49.930;8.606;2023-03-03T04:08:24;50.03;;;27.73;;
4808;SDS011;2418;49.930;8.606;2023-03-03T04:10:50;51.92;;;28.45;;
4808;SDS011;2418;49.930;8.606;2023-03-03T04:13:16;53.08;;;28.90;;
4808;SDS011;2418;49.930;8.606;2023-03-03T04:15:42;51.55;;;27.73;;
4808;SDS011;2418;49.930;8.606;2023-03-03T04:18:08;53.03;;;28.50;;
4808;SDS011;2418;49.930;8.606;2023-03-03T04:20:34;48.58;;;27.60;;
4808;SDS011;2418;49.930;8.606;2023-03-03T04:23:00;55.37;;;30.23;;
4808;SDS011;2418;49.930;8.606;2023-03-03T04:25:26;53.40;;;29.42;;
4808;SDS011;2418;49.930;8.606;2023-03-03T04:27:52;56.83;;;28.90;;
4808;SDS011;2418;49.930;8.606;2023-03-03T04:30:18;56.72;;;29.75;;
4808;SDS011;2418;49.930;8.606;2023-03-03T04:32:45;50.95;;;29.13;;
4808;SDS011;2418;49.930;8.606;2023-03-03T04:35:11;58.40;;;29.67;;
4808;SDS011;2418;49.930;8.606;2023-03-03T04:37:38;62.25;;;31.67;;
4808;SDS011;2418;49.930;8.606;2023-03-03T04:40:04;59.17;;;30.10;;
4808;SDS011;2418;49.930;8.606;2023-03-03T04:42:31;59.05;;;30.55;;
4808;SDS011;2418;49.930;8.606;2023-03-03T04:44:57;57.20;;;28.65;;
4808;SDS011;2418;49.930;8.606;2023-03-03T04:47:23;57.17;;;30.02;;
4808;SDS011;2418;49.930;8.606;2023-03-03T04:49:49;58.20;;;29.80;;
4808;SDS011;2418;49.930;8.606;2023-03-03T04:52:15;55.85;;;28.15;;
4808;SDS011;2418;49.930;8.606;2023-03-03T04:54:41;65.72;;;31.90;;
4808;SDS011;2418;49.930;8.606;2023-03-03T04:57:07;62.83;;;32.58;;
4808;SDS011;2418;49.930;8.606;2023-03-03T04:59:33;62.92;;;31.30;;
4808;SDS011;2418;49.930;8.606;2023-03-03T05:01:59;62.17;;;31.25;;
4808;SDS011;2418;49.930;8.606;2023-03-03T05:04:25;64.10;;;33.80;;
4808;SDS011;2418;49.930;8.606;2023-03-03T05:06:51;65.00;;;34.28;;
4808;SDS011;2418;49.930;8.606;2023-03-03T05:09:17;66.80;;;31.83;;
4808;SDS011;2418;49.930;8.606;2023-03-03T05:11:43;63.97;;;33.78;;
4808;SDS011;2418;49.930;8.606;2023-03-03T05:14:09;74.63;;;33.97;;
4808;SDS011;2418;49.930;8.606;2023-03-03T05:16:36;66.93;;;32.92;;
4808;SDS011;2418;49.930;8.606;2023-03-03T05:19:02;61.95;;;33.42;;
4808;SDS011;2418;49.930;8.606;2023-03-03T05:21:28;69.78;;;33.83;;
4808;SDS011;2418;49.930;8.606;2023-03-03T05:23:54;67.45;;;33.60;;
4808;SDS011;2418;49.930;8.606;2023-03-03T05:26:20;70.75;;;35.72;;
4808;SDS011;2418;49.930;8.606;2023-03-03T05:28:46;76.75;;;35.10;;
4808;SDS011;2418;49.930;8.606;2023-03-03T05:31:12;74.93;;;36.07;;
4808;SDS011;2418;49.930;8.606;2023-03-03T05:33:38;70.03;;;34.70;;
4808;SDS011;2418;49.930;8.606;2023-03-03T05:36:04;66.82;;;33.95;;
4808;SDS011;2418;49.930;8.606;2023-03-03T05:38:30;73.78;;;33.95;;
4808;SDS011;2418;49.930;8.606;2023-03-03T05:40:56;68.38;;;34.97;;
4808;SDS011;2418;49.930;8.606;2023-03-03T05:43:22;63.97;;;35.07;;
4808;SDS011;2418;49.930;8.606;2023-03-03T05:45:53;72.38;;;35.72;;
4808;SDS011;2418;49.930;8.606;2023-03-03T05:48:18;71.88;;;34.20;;
4808;SDS011;2418;49.930;8.606;2023-03-03T05:50:44;73.10;;;35.30;;
4808;SDS011;2418;49.930;8.606;2023-03-03T05:53:10;75.60;;;35.67;;
4808;SDS011;2418;49.930;8.606;2023-03-03T05:55:36;76.20;;;36.30;;
4808;SDS011;2418;49.930;8.606;2023-03-03T05:58:02;74.68;;;37.42;;
4808;SDS011;2418;49.930;8.606;2023-03-03T06:00:28;75.32;;;37.00;;
4808;SDS011;2418;49.930;8.606;2023-03-03T06:02:54;75.35;;;36.72;;
4808;SDS011;2418;49.930;8.606;2023-03-03T06:05:20;77.17;;;38.57;;
4808;SDS011;2418;49.930;8.606;2023-03-03T06:07:46;72.13;;;36.70;;
4808;SDS011;2418;49.930;8.606;2023-03-03T06:10:12;76.22;;;38.03;;
4808;SDS011;2418;49.930;8.606;2023-03-03T06:12:38;79.00;;;37.60;;
4808;SDS011;2418;49.930;8.606;2023-03-03T06:15:06;71.05;;;36.65;;
4808;SDS011;2418;49.930;8.606;2023-03-03T06:17:32;72.93;;;36.35;;
4808;SDS011;2418;49.930;8.606;2023-03-03T06:19:58;76.30;;;35.90;;
4808;SDS011;2418;49.930;8.606;2023-03-03T06:22:24;87.25;;;39.85;;
4808;SDS011;2418;49.930;8.606;2023-03-03T06:24:50;82.60;;;36.78;;
4808;SDS011;2418;49.930;8.606;2023-03-03T06:27:16;78.15;;;38.75;;
4808;SDS011;2418;49.930;8.606;2023-03-03T06:29:42;80.37;;;40.13;;
4808;SDS011;2418;49.930;8.606;2023-03-03T06:32:08;82.32;;;37.38;;
4808;SDS011;2418;49.930;8.606;2023-03-03T06:34:35;72.47;;;36.00;;
4808;SDS011;2418;49.930;8.606;2023-03-03T06:37:01;78.75;;;38.08;;
4808;SDS011;2418;49.930;8.606;2023-03-03T06:39:27;78.43;;;37.65;;
4808;SDS011;2418;49.930;8.606;2023-03-03T06:41:53;72.10;;;33.05;;
4808;SDS011;2418;49.930;8.606;2023-03-03T06:44:19;76.07;;;37.25;;
4808;SDS011;2418;49.930;8.606;2023-03-03T06:46:45;79.25;;;38.33;;
4808;SDS011;2418;49.930;8.606;2023-03-03T06:49:11;76.78;;;35.95;;
4808;SDS011;2418;49.930;8.606;2023-03-03T06:51:38;80.65;;;36.35;;
4808;SDS011;2418;49.930;8.606;2023-03-03T06:54:11;81.57;;;37.22;;
4808;SDS011;2418;49.930;8.606;2023-03-03T06:56:37;86.38;;;37.97;;
4808;SDS011;2418;49.930;8.606;2023-03-03T06:59:13;84.18;;;37.67;;
4808;SDS011;2418;49.930;8.606;2023-03-03T07:01:40;80.93;;;37.38;;
4808;SDS011;2418;49.930;8.606;2023-03-03T07:04:11;78.23;;;36.93;;
4808;SDS011;2418;49.930;8.606;2023-03-03T07:06:38;93.07;;;39.85;;
4808;SDS011;2418;49.930;8.606;2023-03-03T07:09:07;85.55;;;39.28;;
4808;SDS011;2418;49.930;8.606;2023-03-03T07:11:34;86.03;;;39.40;;
4808;SDS011;2418;49.930;8.606;2023-03-03T07:14:04;88.60;;;39.77;;
4808;SDS011;2418;49.930;8.606;2023-03-03T07:16:34;80.10;;;36.17;;
4808;SDS011;2418;49.930;8.606;2023-03-03T07:19:00;85.95;;;40.45;;
4808;SDS011;2418;49.930;8.606;2023-03-03T07:21:32;86.15;;;40.30;;
4808;SDS011;2418;49.930;8.606;2023-03-03T07:23:58;87.97;;;40.47;;
4808;SDS011;2418;49.930;8.606;2023-03-03T07:26:29;85.88;;;38.03;;
4808;SDS011;2418;49.930;8.606;2023-03-03T07:29:40;82.18;;;39.70;;
4808;SDS011;2418;49.930;8.606;2023-03-03T07:31:47;82.90;;;36.92;;
4808;SDS011;2418;49.930;8.606;2023-03-03T07:36:42;57.58;;;30.58;;
4808;SDS011;2418;49.930;8.606;2023-03-03T07:39:28;62.67;;;30.17;;
4808;SDS011;2418;49.930;8.606;2023-03-03T07:41:59;70.47;;;34.00;;
4808;SDS011;2418;49.930;8.606;2023-03-03T07:44:33;74.25;;;34.90;;
4808;SDS011;2418;49.930;8.606;2023-03-03T07:47:11;65.18;;;29.65;;
4808;SDS011;2418;49.930;8.606;2023-03-03T07:49:39;62.13;;;30.80;;
4808;SDS011;2418;49.930;8.606;2023-03-03T07:52:20;64.88;;;33.05;;
4808;SDS011;2418;49.930;8.606;2023-03-03T07:54:48;66.90;;;32.28;;
4808;SDS011;2418;49.930;8.606;2023-03-03T07:57:19;63.80;;;32.97;;
4808;SDS011;2418;49.930;8.606;2023-03-03T08:02:51;69.78;;;35.05;;
4808;SDS011;2418;49.930;8.606;2023-03-03T08:10:49;60.88;;;29.67;;
4808;SDS011;2418;49.930;8.606;2023-03-03T08:13:16;64.63;;;32.08;;
4808;SDS011;2418;49.930;8.606;2023-03-03T08:15:44;62.83;;;30.70;;
4808;SDS011;2418;49.930;8.606;2023-03-03T08:20:49;61.00;;;30.90;;
4808;SDS011;2418;49.930;8.606;2023-03-03T08:23:16;59.45;;;28.48;;
4808;SDS011;2418;49.930;8.606;2023-03-03T08:25:42;59.85;;;29.10;;
4808;SDS011;2418;49.930;8.606;2023-03-03T08:28:09;60.13;;;31.88;;
4808;SDS011;2418;49.930;8.606;2023-03-03T08:30:35;56.15;;;30.75;;
4808;SDS011;2418;49.930;8.606;2023-03-03T08:33:01;63.03;;;31.58;;
4808;SDS011;2418;49.930;8.606;2023-03-03T08:35:27;56.78;;;30.25;;
4808;SDS011;2418;49.930;8.606;2023-03-03T08:37:52;62.75;;;31.83;;
4808;SDS011;2418;49.930;8.606;2023-03-03T08:40:19;65.00;;;29.15;;
4808;SDS011;2418;49.930;8.606;2023-03-03T08:42:44;50.08;;;26.02;;
4808;SDS011;2418;49.930;8.606;2023-03-03T08:45:11;59.17;;;31.27;;
4808;SDS011;2418;49.930;8.606;2023-03-03T08:47:37;61.35;;;31.48;;
4808;SDS011;2418;49.930;8.606;2023-03-03T08:50:04;60.53;;;30.88;;
4808;SDS011;2418;49.930;8.606;2023-03-03T08:52:30;60.33;;;31.97;;
4808;SDS011;2418;49.930;8.606;2023-03-03T08:54:56;59.08;;;31.25;;
4808;SDS011;2418;49.930;8.606;2023-03-03T08:57:22;56.58;;;28.95;;
4808;SDS011;2418;49.930;8.606;2023-03-03T08:59:48;58.50;;;29.30;;
4808;SDS011;2418;49.930;8.606;2023-03-03T09:02:14;55.70;;;27.33;;
4808;SDS011;2418;49.930;8.606;2023-03-03T09:04:41;53.40;;;27.90;;
4808;SDS011;2418;49.930;8.606;2023-03-03T09:07:07;52.00;;;28.00;;
4808;SDS011;2418;49.930;8.606;2023-03-03T09:09:33;56.95;;;29.90;;
4808;SDS011;2418;49.930;8.606;2023-03-03T09:12:04;57.20;;;29.60;;
4808;SDS011;2418;49.930;8.606;2023-03-03T09:14:34;54.50;;;29.88;;
4808;SDS011;2418;49.930;8.606;2023-03-03T09:17:00;53.67;;;29.15;;
4808;SDS011;2418;49.930;8.606;2023-03-03T09:21:58;54.17;;;28.45;;
4808;SDS011;2418;49.930;8.606;2023-03-03T09:24:27;51.03;;;26.85;;
4808;SDS011;2418;49.930;8.606;2023-03-03T09:26:54;52.53;;;27.60;;
4808;SDS011;2418;49.930;8.606;2023-03-03T09:29:23;48.35;;;25.10;;
4808;SDS011;2418;49.930;8.606;2023-03-03T09:31:51;50.05;;;26.17;;
4808;SDS011;2418;49.930;8.606;2023-03-03T09:34:19;45.33;;;23.38;;
4808;SDS011;2418;49.930;8.606;2023-03-03T09:36:46;55.92;;;27.73;;
4808;SDS011;2418;49.930;8.606;2023-03-03T09:44:28;53.08;;;27.73;;
4808;SDS011;2418;49.930;8.606;2023-03-03T09:47:09;55.47;;;29.63;;
4808;SDS011;2418;49.930;8.606;2023-03-03T09:55:09;53.78;;;28.55;;
4808;SDS011;2418;49.930;8.606;2023-03-03T10:00:15;56.53;;;29.35;;
4808;SDS011;2418;49.930;8.606;2023-03-03T10:03:01;53.65;;;29.33;;
4808;SDS011;2418;49.930;8.606;2023-03-03T10:21:22;48.08;;;27.20;;
4808;SDS011;2418;49.930;8.606;2023-03-03T10:31:49;44.40;;;25.45;;
4808;SDS011;2418;49.930;8.606;2023-03-03T10:42:09;49.50;;;24.17;;
4808;SDS011;2418;49.930;8.606;2023-03-03T10:44:48;41.80;;;24.45;;
4808;SDS011;2418;49.930;8.606;2023-03-03T10:52:32;41.38;;;22.13;;
4808;SDS011;2418;49.930;8.606;2023-03-03T10:55:35;44.03;;;25.15;;
4808;SDS011;2418;49.930;8.606;2023-03-03T11:00:49;41.20;;;23.37;;
4808;SDS011;2418;49.930;8.606;2023-03-03T11:06:18;36.45;;;20.42;;
4808;SDS011;2418;49.930;8.606;2023-03-03T11:09:02;39.08;;;21.42;;
4808;SDS011;2418;49.930;8.606;2023-03-03T11:11:39;40.42;;;20.88;;
4808;SDS011;2418;49.930;8.606;2023-03-03T11:19:20;30.40;;;19.40;;
4808;SDS011;2418;49.930;8.606;2023-03-03T11:21:54;32.50;;;18.60;;
4808;SDS011;2418;49.930;8.606;2023-03-03T11:31:47;30.95;;;19.10;;
4808;SDS011;2418;49.930;8.606;2023-03-03T11:34:21;33.70;;;20.00;;
4808;SDS011;2418;49.930;8.606;2023-03-03T11:36:54;33.88;;;19.30;;
4808;SDS011;2418;49.930;8.606;2023-03-03T11:39:22;38.40;;;19.90;;
4808;SDS011;2418;49.930;8.606;2023-03-03T11:44:19;30.25;;;18.50;;
4808;SDS011;2418;49.930;8.606;2023-03-03T11:52:27;36.92;;;18.15;;
4808;SDS011;2418;49.930;8.606;2023-03-03T11:55:23;30.55;;;18.38;;
4808;SDS011;2418;49.930;8.606;2023-03-03T12:03:13;30.15;;;16.02;;
4808;SDS011;2418;49.930;8.606;2023-03-03T12:24:27;26.35;;;15.50;;
4808;SDS011;2418;49.930;8.606;2023-03-03T12:37:52;23.48;;;15.43;;
4808;SDS011;2418;49.930;8.606;2023-03-03T12:40:25;27.58;;;15.75;;
4808;SDS011;2418;49.930;8.606;2023-03-03T12:43:41;23.55;;;14.38;;
4808;SDS011;2418;49.930;8.606;2023-03-03T12:45:50;24.17;;;14.65;;
4808;SDS011;2418;49.930;8.606;2023-03-03T12:56:15;24.38;;;14.82;;
4808;SDS011;2418;49.930;8.606;2023-03-03T13:14:48;25.77;;;15.32;;
4808;SDS011;2418;49.930;8.606;2023-03-03T13:17:18;22.75;;;13.25;;
4808;SDS011;2418;49.930;8.606;2023-03-03T13:19:55;21.58;;;12.63;;
4808;SDS011;2418;49.930;8.606;2023-03-03T13:24:54;25.83;;;14.75;;
4808;SDS011;2418;49.930;8.606;2023-03-03T13:27:24;18.07;;;12.33;;
4808;SDS011;2418;49.930;8.606;2023-03-03T13:29:55;21.98;;;14.13;;
4808;SDS011;2418;49.930;8.606;2023-03-03T13:32:47;21.65;;;13.43;;
4808;SDS011;2418;49.930;8.606;2023-03-03T13:37:45;22.58;;;13.93;;
4808;SDS011;2418;49.930;8.606;2023-03-03T13:48:12;22.52;;;13.70;;
4808;SDS011;2418;49.930;8.606;2023-03-03T13:56:16;20.80;;;12.90;;
4808;SDS011;2418;49.930;8.606;2023-03-03T13:58:58;22.05;;;13.52;;
4808;SDS011;2418;49.930;8.606;2023-03-03T14:01:31;18.30;;;12.43;;
4808;SDS011;2418;49.930;8.606;2023-03-03T14:04:28;18.80;;;12.25;;
4808;SDS011;2418;49.930;8.606;2023-03-03T14:06:52;23.80;;;13.30;;
4808;SDS011;2418;49.930;8.606;2023-03-03T14:11:51;15.48;;;11.65;;
4808;SDS011;2418;49.930;8.606;2023-03-03T14:17:02;18.98;;;11.80;;
4808;SDS011;2418;49.930;8.606;2023-03-03T14:24:55;18.95;;;12.27;;
4808;SDS011;2418;49.930;8.606;2023-03-03T14:27:24;20.37;;;12.77;;
4808;SDS011;2418;49.930;8.606;2023-03-03T14:29:51;21.35;;;12.80;;
4808;SDS011;2418;49.930;8.606;2023-03-03T14:32:22;18.95;;;12.63;;
4808;SDS011;2418;49.930;8.606;2023-03-03T14:34:56;19.92;;;13.07;;
4808;SDS011;2418;49.930;8.606;2023-03-03T14:42:39;38.22;;;22.02;;
4808;SDS011;2418;49.930;8.606;2023-03-03T14:47:47;59.28;;;31.27;;
4808;SDS011;2418;49.930;8.606;2023-03-03T14:50:30;57.53;;;31.48;;
4808;SDS011;2418;49.930;8.606;2023-03-03T14:53:07;55.83;;;31.33;;
4808;SDS011;2418;49.930;8.606;2023-03-03T14:55:38;58.90;;;31.88;;
4808;SDS011;2418;49.930;8.606;2023-03-03T14:58:07;46.83;;;28.55;;
4808;SDS011;2418;49.930;8.606;2023-03-03T15:03:44;43.45;;;25.45;;
4808;SDS011;2418;49.930;8.606;2023-03-03T15:06:17;37.60;;;21.60;;
4808;SDS011;2418;49.930;8.606;2023-03-03T15:09:29;34.80;;;20.40;;
4808;SDS011;2418;49.930;8.606;2023-03-03T15:14:50;24.80;;;15.85;;
4808;SDS011;2418;49.930;8.606;2023-03-03T15:18:00;22.95;;;14.60;;
4808;SDS011;2418;49.930;8.606;2023-03-03T15:31:01;10.60;;;9.02;;
4808;SDS011;2418;49.930;8.606;2023-03-03T15:36:30;12.10;;;9.15;;
4808;SDS011;2418;49.930;8.606;2023-03-03T15:39:11;10.90;;;8.80;;
4808;SDS011;2418;49.930;8.606;2023-03-03T15:42:17;13.48;;;9.40;;
4808;SDS011;2418;49.930;8.606;2023-03-03T15:44:56;13.00;;;9.18;;
4808;SDS011;2418;49.930;8.606;2023-03-03T15:55:46;12.23;;;8.90;;
4808;SDS011;2418;49.930;8.606;2023-03-03T16:01:06;12.02;;;9.23;;
4808;SDS011;2418;49.930;8.606;2023-03-03T16:03:42;13.85;;;8.90;;
4808;SDS011;2418;49.930;8.606;2023-03-03T16:30:43;12.52;;;8.60;;
4808;SDS011;2418;49.930;8.606;2023-03-03T16:33:22;10.73;;;8.80;;
4808;SDS011;2418;49.930;8.606;2023-03-03T16:36:07;11.88;;;8.50;;
4808;SDS011;2418;49.930;8.606;2023-03-03T16:42:18;12.20;;;8.82;;
4808;SDS011;2418;49.930;8.606;2023-03-03T16:46:52;10.93;;;8.57;;
4808;SDS011;2418;49.930;8.606;2023-03-03T16:49:29;12.75;;;8.95;;
4808;SDS011;2418;49.930;8.606;2023-03-03T16:52:06;12.52;;;8.80;;
4808;SDS011;2418;49.930;8.606;2023-03-03T16:54:42;17.92;;;8.20;;
4808;SDS011;2418;49.930;8.606;2023-03-03T17:17:54;12.00;;;7.95;;
4808;SDS011;2418;49.930;8.606;2023-03-03T17:20:34;10.45;;;7.70;;
4808;SDS011;2418;49.930;8.606;2023-03-03T17:31:49;11.45;;;8.45;;
4808;SDS011;2418;49.930;8.606;2023-03-03T17:37:17;8.57;;;7.43;;
4808;SDS011;2418;49.930;8.606;2023-03-03T17:39:58;10.30;;;7.82;;
4808;SDS011;2418;49.930;8.606;2023-03-03T17:42:42;9.10;;;7.20;;
4808;SDS011;2418;49.930;8.606;2023-03-03T17:45:11;8.63;;;6.70;;
4808;SDS011;2418;49.930;8.606;2023-03-03T17:50:35;9.13;;;7.50;;
4808;SDS011;2418;49.930;8.606;2023-03-03T18:30:12;5.50;;;5.00;;
4808;SDS011;2418;49.930;8.606;2023-03-03T18:40:47;7.53;;;6.10;;
4808;SDS011;2418;49.930;8.606;2023-03-03T18:49:04;6.45;;;5.80;;
4808;SDS011;2418;49.930;8.606;2023-03-03T18:56:46;8.40;;;5.80;;
4808;SDS011;2418;49.930;8.606;2023-03-03T19:02:13;6.55;;;6.05;;
4808;SDS011;2418;49.930;8.606;2023-03-03T19:12:52;10.73;;;7.10;;
4808;SDS011;2418;49.930;8.606;2023-03-03T19:20:38;8.35;;;6.75;;
4808;SDS011;2418;49.930;8.606;2023-03-03T19:24:23;10.20;;;6.40;;
4808;SDS011;2418;49.930;8.606;2023-03-03T19:35:03;12.15;;;7.40;;
4808;SDS011;2418;49.930;8.606;2023-03-03T19:42:47;10.43;;;7.60;;
4808;SDS011;2418;49.930;8.606;2023-03-03T20:04:41;10.95;;;8.55;;
4808;SDS011;2418;49.930;8.606;2023-03-03T20:10:21;15.05;;;9.98;;
4808;SDS011;2418;49.930;8.606;2023-03-03T20:21:22;16.45;;;10.27;;
4808;SDS011;2418;49.930;8.606;2023-03-03T20:26:25;15.40;;;10.18;;
4808;SDS011;2418;49.930;8.606;2023-03-03T20:34:19;12.40;;;9.60;;
4808;SDS011;2418;49.930;8.606;2023-03-03T20:37:11;15.55;;;9.88;;
4808;SDS011;2418;49.930;8.606;2023-03-03T20:42:21;17.45;;;9.77;;
4808;SDS011;2418;49.930;8.606;2023-03-03T20:44:56;12.50;;;8.55;;
4808;SDS011;2418;49.930;8.606;2023-03-03T20:50:06;13.32;;;9.30;;
4808;SDS011;2418;49.930;8.606;2023-03-03T20:55:23;17.25;;;9.00;;
4808;SDS011;2418;49.930;8.606;2023-03-03T21:00:24;18.40;;;9.30;;
4808;SDS011;2418;49.930;8.606;2023-03-03T21:05:26;13.53;;;8.73;;
4808;SDS011;2418;49.930;8.606;2023-03-03T21:07:54;15.55;;;8.63;;
4808;SDS011;2418;49.930;8.606;2023-03-03T21:10:33;17.02;;;9.20;;
4808;SDS011;2418;49.930;8.606;2023-03-03T21:16:02;13.52;;;9.93;;
4808;SDS011;2418;49.930;8.606;2023-03-03T21:18:36;12.75;;;9.00;;
4808;SDS011;2418;49.930;8.606;2023-03-03T21:21:03;16.25;;;9.88;;
4808;SDS011;2418;49.930;8.606;2023-03-03T21:23:30;43.03;;;20.85;;
4808;SDS011;2418;49.930;8.606;2023-03-03T21:25:55;18.55;;;11.10;;
4808;SDS011;2418;49.930;8.606;2023-03-03T21:36:06;17.75;;;10.10;;
4808;SDS011;2418;49.930;8.606;2023-03-03T21:38:33;13.50;;;8.95;;
4808;SDS011;2418;49.930;8.606;2023-03-03T21:41:01;12.23;;;9.50;;
4808;SDS011;2418;49.930;8.606;2023-03-03T21:43:37;12.40;;;9.38;;
4808;SDS011;2418;49.930;8.606;2023-03-03T21:46:05;11.77;;;8.88;;
4808;SDS011;2418;49.930;8.606;2023-03-03T21:48:31;12.95;;;9.13;;
4808;SDS011;2418;49.930;8.606;2023-03-03T21:50:58;18.55;;;10.20;;
4808;SDS011;2418;49.930;8.606;2023-03-03T21:53:24;14.90;;;9.35;;
4808;SDS011;2418;49.930;8.606;2023-03-03T21:55:51;16.17;;;9.23;;
4808;SDS011;2418;49.930;8.606;2023-03-03T21:58:17;13.27;;;8.90;;
4808;SDS011;2418;49.930;8.606;2023-03-03T22:00:43;11.60;;;8.23;;
4808;SDS011;2418;49.930;8.606;2023-03-03T22:03:09;12.85;;;8.43;;
4808;SDS011;2418;49.930;8.606;2023-03-03T22:05:35;12.68;;;9.20;;
4808;SDS011;2418;49.930;8.606;2023-03-03T22:08:01;13.40;;;9.02;;
4808;SDS011;2418;49.930;8.606;2023-03-03T22:10:27;13.93;;;8.50;;
4808;SDS011;2418;49.930;8.606;2023-03-03T22:12:53;14.88;;;9.88;;
4808;SDS011;2418;49.930;8.606;2023-03-03T22:15:19;14.82;;;10.20;;
4808;SDS011;2418;49.930;8.606;2023-03-03T22:17:45;16.33;;;10.27;;
4808;SDS011;2418;49.930;8.606;2023-03-03T22:20:12;17.20;;;9.80;;
4808;SDS011;2418;49.930;8.606;2023-03-03T22:22:41;21.63;;;11.65;;
4808;SDS011;2418;49.930;8.606;2023-03-03T22:25:07;19.80;;;9.40;;
4808;SDS011;2418;49.930;8.606;2023-03-03T22:27:33;31.95;;;22.67;;
4808;SDS011;2418;49.930;8.606;2023-03-03T22:29:59;20.70;;;10.73;;
4808;SDS011;2418;49.930;8.606;2023-03-03T22:32:25;14.17;;;9.93;;
4808;SDS011;2418;49.930;8.606;2023-03-03T22:34:52;16.20;;;11.03;;
4808;SDS011;2418;49.930;8.606;2023-03-03T22:37:17;15.13;;;9.90;;